createdAt,value
2019-01-21T00:01:20.702Z,31.40
2019-01-21T00:04:29.208Z,31.97
2019-01-21T00:06:57.249Z,32.10
2019-01-21T00:12:20.356Z,32.23
2019-01-21T00:14:48.751Z,31.90
2019-01-21T00:17:22.274Z,33.97
2019-01-21T00:19:46.957Z,30.50
2019-01-21T00:22:55.402Z,32.57
2019-01-21T00:26:03.490Z,33.87
2019-01-21T00:28:31.917Z,31.43
2019-01-21T00:31:00.080Z,32.10
2019-01-21T00:34:08.538Z,33.80
2019-01-21T00:36:36.276Z,31.87
2019-01-21T00:39:45.038Z,32.93
2019-01-21T00:42:13.571Z,31.80
2019-01-21T00:45:21.769Z,33.23
2019-01-21T00:47:49.805Z,30.47
2019-01-21T00:50:17.958Z,32.53
2019-01-21T00:55:54.157Z,31.70
2019-01-21T00:58:41.484Z,33.40
2019-01-21T01:01:49.945Z,33.10
2019-01-21T01:04:58.031Z,31.77
2019-01-21T01:07:26.481Z,32.87
2019-01-21T01:09:55.066Z,32.93
2019-01-21T01:13:03.272Z,33.20
2019-01-21T01:15:31.312Z,34.37
2019-01-21T01:18:39.140Z,33.70
2019-01-21T01:21:07.513Z,31.23
2019-01-21T01:23:35.663Z,31.33
2019-01-21T01:26:04.084Z,32.43
2019-01-21T01:28:31.926Z,32.80
2019-01-21T01:31:00.422Z,34.10
2019-01-21T01:33:28.811Z,34.40
2019-01-21T01:35:57.382Z,35.93
2019-01-21T01:39:05.867Z,35.20
2019-01-21T01:44:29.151Z,35.63
2019-01-21T01:46:57.657Z,34.67
2019-01-21T01:50:06.188Z,35.43
2019-01-21T01:56:12.050Z,34.03
2019-01-21T01:58:40.463Z,34.63
2019-01-21T02:01:08.954Z,32.10
2019-01-21T02:06:32.030Z,29.60
2019-01-21T02:08:59.781Z,29.70
2019-01-21T02:11:27.527Z,31.17
2019-01-21T02:13:57.587Z,32.53
2019-01-21T02:16:26.074Z,31.53
2019-01-21T02:18:54.320Z,31.50
2019-01-21T02:22:02.846Z,31.20
2019-01-21T02:25:12.898Z,31.43
2019-01-21T02:28:19.102Z,39.00
2019-01-21T02:31:25.580Z,33.37
2019-01-21T02:34:31.769Z,33.40
2019-01-21T02:37:38.296Z,33.77
2019-01-21T02:40:44.563Z,34.40
2019-01-21T02:43:40.561Z,34.43
2019-01-21T02:47:00.760Z,33.30
2019-01-21T02:49:55.065Z,33.53
2019-01-21T02:53:03.576Z,32.17
2019-01-21T02:56:16.897Z,34.13
2019-01-21T02:59:23.188Z,31.93
2019-01-21T03:02:29.703Z,33.03
2019-01-21T03:05:43.532Z,34.77
2019-01-21T03:08:50.026Z,31.90
2019-01-21T03:11:56.217Z,32.40
2019-01-21T03:15:08.347Z,33.30
2019-01-21T03:20:29.633Z,33.40
2019-01-21T03:23:23.718Z,33.17
2019-01-21T03:26:30.251Z,33.97
2019-01-21T03:29:36.822Z,33.40
2019-01-21T03:32:45.278Z,34.10
2019-01-21T03:35:51.811Z,34.57
2019-01-21T03:38:58.380Z,33.83
2019-01-21T03:42:04.624Z,33.67
2019-01-21T03:45:11.658Z,34.97
2019-01-21T03:51:20.769Z,34.03
2019-01-21T03:57:26.295Z,34.87
2019-01-21T04:04:12.404Z,35.00
2019-01-21T04:07:32.483Z,35.57
2019-01-21T04:10:38.997Z,34.47
2019-01-21T04:13:45.242Z,34.67
2019-01-21T04:16:52.070Z,35.10
2019-01-21T04:19:42.718Z,34.07
2019-01-21T04:22:49.282Z,35.20
2019-01-21T04:25:56.222Z,34.67
2019-01-21T04:29:02.961Z,32.53
2019-01-21T04:32:09.642Z,34.37
2019-01-21T04:35:15.892Z,32.67
2019-01-21T04:38:22.624Z,34.17
2019-01-21T04:41:16.061Z,31.00
2019-01-21T04:44:22.828Z,34.60
2019-01-21T04:47:31.017Z,35.47
2019-01-21T04:50:22.858Z,34.73
2019-01-21T04:53:29.062Z,33.53
2019-01-21T04:56:44.364Z,34.77
2019-01-21T04:59:50.899Z,33.93
2019-01-21T05:02:57.440Z,34.67
2019-01-21T05:06:03.965Z,35.23
2019-01-21T05:09:10.494Z,36.00
2019-01-21T05:12:17.085Z,35.77
2019-01-21T05:15:32.924Z,35.33
2019-01-21T05:18:41.259Z,33.90
2019-01-21T05:21:47.647Z,32.13
2019-01-21T05:24:54.143Z,31.27
2019-01-21T05:28:00.687Z,33.70
2019-01-21T05:31:07.217Z,34.33
2019-01-21T05:34:08.827Z,34.53
2019-01-21T05:37:15.364Z,34.00
2019-01-21T05:40:21.918Z,33.70
2019-01-21T05:43:28.455Z,33.40
2019-01-21T05:46:35.049Z,34.43
2019-01-21T05:49:41.250Z,32.37
2019-01-21T05:52:47.465Z,35.30
2019-01-21T05:55:53.640Z,36.13
2019-01-21T05:58:54.516Z,36.90
2019-01-21T06:02:01.059Z,34.53
2019-01-21T06:05:07.037Z,36.47
2019-01-21T06:08:13.573Z,39.53
2019-01-21T06:11:26.392Z,37.63
2019-01-21T06:14:33.018Z,36.23
2019-01-21T06:17:23.527Z,34.57
2019-01-21T06:20:35.934Z,35.13
2019-01-21T06:23:26.892Z,36.53
2019-01-21T06:26:33.469Z,37.50
2019-01-21T06:29:24.156Z,37.90
2019-01-21T06:32:30.352Z,36.33
2019-01-21T06:35:36.564Z,36.67
2019-01-21T06:38:43.294Z,36.43
2019-01-21T06:41:49.835Z,35.93
2019-01-21T06:44:56.397Z,37.60
2019-01-21T06:48:02.906Z,36.90
2019-01-21T06:51:09.418Z,35.13
2019-01-21T06:54:15.917Z,36.10
2019-01-21T06:57:22.483Z,35.90
2019-01-21T07:00:13.829Z,35.70
2019-01-21T07:03:20.408Z,34.10
2019-01-21T07:06:34.157Z,33.77
2019-01-21T07:09:25.872Z,35.57
2019-01-21T07:12:32.417Z,34.33
2019-01-21T07:15:38.947Z,33.73
2019-01-21T07:18:45.157Z,34.13
2019-01-21T07:21:51.690Z,32.73
2019-01-21T07:24:50.716Z,32.40
2019-01-21T07:27:57.229Z,33.13
2019-01-21T07:31:03.782Z,33.20
2019-01-21T07:34:10.080Z,32.10
2019-01-21T07:37:16.624Z,32.50
2019-01-21T07:40:08.250Z,34.93
2019-01-21T07:43:14.895Z,32.77
2019-01-21T07:46:21.433Z,38.53
2019-01-21T07:49:27.637Z,36.10
2019-01-21T07:52:34.168Z,37.20
2019-01-21T07:55:47.312Z,36.93
2019-01-21T07:58:54.035Z,35.07
2019-01-21T08:01:47.423Z,33.20
2019-01-21T08:04:53.988Z,30.13
2019-01-21T08:08:05.718Z,33.57
2019-01-21T08:11:11.923Z,33.27
2019-01-21T08:14:18.469Z,35.40
2019-01-21T08:20:52.415Z,61.80
2019-01-21T08:23:58.684Z,45.90
2019-01-21T08:27:05.382Z,89.80
2019-01-21T08:30:11.643Z,56.90
2019-01-21T08:33:18.308Z,36.13
2019-01-21T08:36:38.826Z,36.90
2019-01-21T08:39:45.364Z,228.67
2019-01-21T08:42:51.673Z,150.87
2019-01-21T08:46:13.331Z,160.27
2019-01-21T08:49:03.593Z,318.13
2019-01-21T08:52:10.118Z,90.40
2019-01-21T08:55:01.218Z,50.87
2019-01-21T08:58:07.768Z,69.40
2019-01-21T09:01:14.040Z,38.80
2019-01-21T09:04:20.573Z,38.27
2019-01-21T09:07:27.058Z,42.60
2019-01-21T09:10:33.588Z,39.27
2019-01-21T09:13:28.280Z,42.40
2019-01-21T09:16:19.875Z,45.53
2019-01-21T09:19:26.404Z,59.60
2019-01-21T09:22:25.719Z,44.77
2019-01-21T09:25:32.233Z,56.33
2019-01-21T09:28:38.477Z,57.40
2019-01-21T09:31:45.036Z,88.40
2019-01-21T09:34:51.569Z,139.50
2019-01-21T09:37:41.473Z,67.57
2019-01-21T09:40:47.406Z,50.47
2019-01-21T09:43:49.114Z,35.93
2019-01-21T09:47:03.912Z,38.43
2019-01-21T09:49:30.599Z,37.63
2019-01-21T09:52:18.420Z,38.07
2019-01-21T09:54:46.838Z,52.77
2019-01-21T09:57:18.499Z,35.30
2019-01-21T10:00:27.606Z,35.90
2019-01-21T10:03:36.015Z,38.57
2019-01-21T10:06:46.182Z,37.47
2019-01-21T10:10:01.106Z,28.97
2019-01-21T10:13:07.591Z,30.50
2019-01-21T10:16:01.247Z,32.13
2019-01-21T10:19:18.688Z,30.37
2019-01-21T10:22:25.238Z,30.60
2019-01-21T10:25:31.544Z,32.30
2019-01-21T10:28:38.084Z,28.53
2019-01-21T10:31:44.619Z,29.60
2019-01-21T10:34:51.130Z,40.03
2019-01-21T10:37:57.345Z,30.60
2019-01-21T10:40:47.032Z,31.87
2019-01-21T10:43:47.373Z,35.07
2019-01-21T10:46:53.309Z,34.70
2019-01-21T10:49:59.534Z,35.83
2019-01-21T10:53:00.234Z,34.77
2019-01-21T10:56:06.423Z,36.53
2019-01-21T10:58:49.539Z,39.00
2019-01-21T11:01:50.573Z,38.07
2019-01-21T11:04:32.876Z,45.43
2019-01-21T11:07:39.417Z,38.60
2019-01-21T11:10:30.596Z,37.13
2019-01-21T11:13:21.526Z,34.07
2019-01-21T11:19:46.945Z,34.00
2019-01-21T11:22:42.078Z,30.77
2019-01-21T11:25:48.846Z,32.23
2019-01-21T11:28:55.380Z,28.55
2019-01-21T11:31:45.311Z,25.17
2019-01-21T11:34:37.489Z,26.33
2019-01-21T11:37:43.730Z,24.10
2019-01-21T11:40:33.925Z,17.10
2019-01-21T11:43:40.641Z,24.87
2019-01-21T11:46:46.963Z,23.43
2019-01-21T11:49:53.324Z,23.17
2019-01-21T11:52:59.492Z,21.00
2019-01-21T11:56:06.074Z,22.17
2019-01-21T11:58:57.221Z,21.27
2019-01-21T12:01:35.549Z,18.40
2019-01-21T12:04:26.165Z,18.87
2019-01-21T12:07:19.696Z,17.07
2019-01-21T12:10:11.461Z,17.00
2019-01-21T12:13:17.950Z,17.10
2019-01-21T12:16:12.106Z,16.40
2019-01-21T12:19:18.625Z,19.40
2019-01-21T12:22:25.129Z,19.57
2019-01-21T12:25:39.081Z,19.90
2019-01-21T12:28:39.994Z,19.47
2019-01-21T12:31:52.273Z,20.73
2019-01-21T12:35:06.219Z,20.53
2019-01-21T12:38:01.395Z,22.20
2019-01-21T12:41:21.669Z,19.10
2019-01-21T12:44:26.509Z,21.87
2019-01-21T12:47:32.723Z,23.37
2019-01-21T12:50:38.627Z,20.93
2019-01-21T12:53:32.970Z,21.17
2019-01-21T12:56:39.554Z,24.60
2019-01-21T12:59:45.740Z,26.10
2019-01-21T13:02:25.860Z,27.77
2019-01-21T13:05:32.239Z,26.80
2019-01-21T13:08:44.474Z,30.70
2019-01-21T13:11:51.046Z,27.63
2019-01-21T13:14:57.286Z,25.93
2019-01-21T13:18:03.488Z,26.37
2019-01-21T13:21:09.463Z,24.93
2019-01-21T13:24:31.266Z,26.10
2019-01-21T13:27:37.308Z,26.60
2019-01-21T13:30:43.840Z,27.77
2019-01-21T13:33:35.230Z,28.93
2019-01-21T13:36:41.803Z,29.10
2019-01-21T13:39:48.360Z,31.17
2019-01-21T13:42:58.814Z,32.57
2019-01-21T13:45:50.508Z,30.77
2019-01-21T13:48:40.684Z,31.17
2019-01-21T13:51:58.619Z,31.93
2019-01-21T13:54:50.049Z,34.50
2019-01-21T13:57:56.599Z,34.33
2019-01-21T14:01:03.137Z,32.13
2019-01-21T14:07:43.444Z,36.57
2019-01-21T14:10:36.599Z,30.20
2019-01-21T14:13:27.158Z,30.70
2019-01-21T14:16:33.677Z,31.70
2019-01-21T14:19:40.350Z,29.63
2019-01-21T14:22:36.109Z,30.43
2019-01-21T14:25:42.610Z,32.37
2019-01-21T14:29:01.139Z,31.80
2019-01-21T14:32:16.295Z,30.63
2019-01-21T14:35:22.498Z,34.13
2019-01-21T14:38:34.883Z,41.27
2019-01-21T14:41:41.139Z,35.47
2019-01-21T14:44:47.669Z,31.00
2019-01-21T14:47:54.201Z,31.57
2019-01-21T14:51:00.680Z,32.10
2019-01-21T14:54:07.274Z,31.60
2019-01-21T14:57:18.539Z,30.03
2019-01-21T15:00:24.816Z,31.07
2019-01-21T15:03:31.091Z,28.90
2019-01-21T15:06:37.642Z,31.97
2019-01-21T15:09:44.181Z,30.83
2019-01-21T15:12:50.718Z,32.67
2019-01-21T15:15:57.229Z,29.80
2019-01-21T15:18:47.542Z,31.77
2019-01-21T15:21:54.046Z,31.63
2019-01-21T15:25:00.402Z,32.07
2019-01-21T15:27:55.520Z,32.57
2019-01-21T15:30:55.826Z,29.77
2019-01-21T15:34:02.433Z,30.57
2019-01-21T15:36:53.501Z,30.83
2019-01-21T15:39:59.795Z,32.37
2019-01-21T15:43:06.062Z,36.40
2019-01-21T15:46:12.635Z,31.70
2019-01-21T15:49:19.122Z,32.30
2019-01-21T15:52:25.659Z,32.40
2019-01-21T15:55:32.389Z,32.93
2019-01-21T15:58:38.572Z,28.70
2019-01-21T16:01:44.978Z,34.20
2019-01-21T16:04:25.240Z,34.30
2019-01-21T16:10:57.740Z,52.07
2019-01-21T16:14:04.267Z,31.63
2019-01-21T16:16:57.761Z,29.63
2019-01-21T16:19:49.226Z,28.03
2019-01-21T16:22:55.767Z,30.33
2019-01-21T16:26:02.290Z,27.70
2019-01-21T16:29:08.933Z,28.17
2019-01-21T16:32:15.520Z,28.57
2019-01-21T16:35:26.595Z,28.80
2019-01-21T16:38:32.855Z,27.97
2019-01-21T16:41:39.141Z,27.43
2019-01-21T16:46:41.300Z,28.40
2019-01-21T16:49:09.410Z,30.03
2019-01-21T16:51:37.949Z,29.20
2019-01-21T16:54:05.727Z,29.63
2019-01-21T16:56:34.121Z,29.17
2019-01-21T16:59:01.582Z,27.63
2019-01-21T17:01:29.771Z,29.33
2019-01-21T17:06:53.017Z,29.07
2019-01-21T17:09:21.623Z,32.07
2019-01-21T17:12:29.827Z,33.33
2019-01-21T17:15:38.346Z,34.90
2019-01-21T17:18:06.868Z,31.97
2019-01-21T17:21:15.401Z,30.70
2019-01-21T17:24:23.912Z,29.40
2019-01-21T17:29:32.481Z,30.77
2019-01-21T17:32:01.020Z,29.40
2019-01-21T17:34:28.792Z,33.07
2019-01-21T17:39:52.822Z,40.50
2019-01-21T17:42:20.951Z,46.63
2019-01-21T17:44:49.648Z,48.63
2019-01-21T17:47:17.857Z,65.10
2019-01-21T17:49:45.633Z,51.07
2019-01-21T17:52:13.961Z,52.57
2019-01-21T17:54:42.421Z,38.10
2019-01-21T17:57:10.483Z,36.07
2019-01-21T17:59:38.682Z,35.70
2019-01-21T18:02:06.893Z,34.90
2019-01-21T18:04:35.296Z,30.50
2019-01-21T18:07:03.111Z,31.80
2019-01-21T18:09:31.547Z,28.10
2019-01-21T18:11:59.027Z,27.00
2019-01-21T18:14:26.855Z,27.70
2019-01-21T18:16:55.109Z,33.00
2019-01-21T18:19:23.180Z,28.00
2019-01-21T18:21:51.580Z,30.73
2019-01-21T18:24:19.911Z,27.40
2019-01-21T18:26:48.210Z,28.07
2019-01-21T18:29:15.373Z,31.67
2019-01-21T18:31:43.651Z,38.10
2019-01-21T18:34:11.830Z,36.73
2019-01-21T18:36:40.307Z,36.83
2019-01-21T18:39:11.565Z,35.70
2019-01-21T18:41:39.723Z,33.87
2019-01-21T18:46:41.923Z,36.17
2019-01-21T18:49:50.446Z,32.53
2019-01-21T18:56:07.630Z,29.43
2019-01-21T18:58:48.134Z,28.40
2019-01-21T19:04:18.232Z,27.53
2019-01-21T19:06:46.353Z,28.87
2019-01-21T19:09:14.192Z,31.97
2019-01-21T19:11:42.378Z,29.33
2019-01-21T19:14:10.505Z,30.90
2019-01-21T19:16:38.747Z,30.63
2019-01-21T19:19:07.297Z,33.13
2019-01-21T19:21:35.844Z,31.80
2019-01-21T19:24:44.038Z,30.87
2019-01-21T19:27:12.574Z,31.17
2019-01-21T19:32:35.227Z,33.50
2019-01-21T19:35:43.792Z,30.30
2019-01-21T19:38:51.912Z,32.13
2019-01-21T19:41:32.645Z,35.37
2019-01-21T19:44:41.267Z,54.80
2019-01-21T19:47:10.502Z,47.50
2019-01-21T19:49:38.633Z,35.40
2019-01-21T19:52:26.031Z,32.73
2019-01-21T19:54:54.446Z,37.97
2019-01-21T19:57:23.291Z,32.67
2019-01-21T20:00:03.196Z,33.50
2019-01-21T20:02:44.557Z,32.47
2019-01-21T20:05:32.207Z,30.67
2019-01-21T20:08:02.861Z,30.73
2019-01-21T20:16:21.121Z,30.63
2019-01-21T20:24:37.669Z,26.07
2019-01-21T20:27:06.250Z,27.77
2019-01-21T20:30:14.727Z,28.90
2019-01-21T20:32:44.881Z,30.87
2019-01-21T20:35:53.036Z,29.80
2019-01-21T20:40:54.531Z,30.37
2019-01-21T20:43:43.872Z,30.10
2019-01-21T20:46:12.244Z,33.40
2019-01-21T20:48:41.031Z,32.20
2019-01-21T20:51:49.371Z,34.70
2019-01-21T20:54:17.398Z,31.40
2019-01-21T20:57:26.436Z,37.40
2019-01-21T20:59:54.825Z,31.70
2019-01-21T21:05:33.007Z,34.70
2019-01-21T21:08:40.171Z,29.83
2019-01-21T21:11:07.893Z,30.57
2019-01-21T21:13:55.465Z,32.00
2019-01-21T21:16:23.028Z,30.20
2019-01-21T21:19:31.883Z,32.87
2019-01-21T21:21:59.878Z,33.93
2019-01-21T21:24:47.436Z,31.30
2019-01-21T21:31:05.357Z,30.40
2019-01-21T21:33:53.094Z,32.60
2019-01-21T21:36:21.491Z,31.97
2019-01-21T21:39:09.082Z,32.43
2019-01-21T21:41:37.128Z,29.03
2019-01-21T21:44:25.329Z,32.53
2019-01-21T21:46:53.827Z,32.20
2019-01-21T21:49:22.093Z,32.70
2019-01-21T21:52:30.578Z,34.50
2019-01-21T21:55:39.420Z,29.37
2019-01-21T21:58:49.266Z,31.00
2019-01-21T22:01:57.922Z,32.37
2019-01-21T22:04:38.003Z,32.17
2019-01-21T22:07:18.381Z,31.63
2019-01-21T22:10:26.911Z,31.80
2019-01-21T22:18:28.530Z,31.87
2019-01-21T22:21:36.616Z,30.03
2019-01-21T22:27:13.470Z,28.77
2019-01-21T22:29:42.253Z,29.47
2019-01-21T22:32:50.900Z,31.87
2019-01-21T22:35:18.967Z,32.60
2019-01-21T22:38:29.312Z,29.37
2019-01-21T22:40:57.665Z,28.53
2019-01-21T22:43:26.641Z,33.70
2019-01-21T22:46:35.401Z,29.40
2019-01-21T22:49:05.811Z,29.60
2019-01-21T22:51:34.055Z,28.57
2019-01-21T22:54:02.913Z,30.43
2019-01-21T22:56:31.059Z,29.03
2019-01-21T22:59:39.006Z,32.97
2019-01-21T23:02:26.198Z,27.20
2019-01-21T23:07:51.077Z,29.67
2019-01-21T23:10:20.262Z,30.77
2019-01-21T23:18:39.551Z,27.50
2019-01-21T23:21:07.881Z,29.73
2019-01-21T23:23:55.830Z,32.67
2019-01-21T23:27:04.301Z,30.93
2019-01-21T23:29:32.766Z,30.37
2019-01-21T23:32:01.178Z,30.73
2019-01-21T23:34:29.238Z,33.23
2019-01-21T23:36:56.606Z,30.83
2019-01-21T23:39:25.126Z,31.00
2019-01-21T23:41:53.683Z,31.87
2019-01-21T23:47:36.218Z,33.13
2019-01-21T23:50:44.751Z,29.73
2019-01-21T23:53:52.899Z,28.30
2019-01-21T23:56:21.374Z,27.60
2019-01-21T23:58:49.483Z,28.07
